sensor_id;sensor_type;location;lat;lon;timestamp;pressure;altitude;pressure_sealevel;temperature
12430;BMP280;6279;42.192;24.326;2022-08-01T00:00:57;98689.53;;;22.82
12430;BMP280;6279;42.192;24.326;2022-08-01T00:03:23;98691.34;;;22.77
12430;BMP280;6279;42.192;24.326;2022-08-01T00:05:48;98692.41;;;22.76
12430;BMP280;6279;42.192;24.326;2022-08-01T00:08:14;98695.34;;;22.79
12430;BMP280;6279;42.192;24.326;2022-08-01T00:10:39;98690.81;;;22.75
12430;BMP280;6279;42.192;24.326;2022-08-01T00:13:04;98695.84;;;22.76
12430;BMP280;6279;42.192;24.326;2022-08-01T00:15:30;98700.63;;;22.74
12430;BMP280;6279;42.192;24.326;2022-08-01T00:17:57;98688.66;;;22.72
12430;BMP280;6279;42.192;24.326;2022-08-01T00:20:23;98682.13;;;22.58
12430;BMP280;6279;42.192;24.326;2022-08-01T00:22:48;98691.28;;;22.51
12430;BMP280;6279;42.192;24.326;2022-08-01T00:25:13;98682.69;;;22.39
12430;BMP280;6279;42.192;24.326;2022-08-01T00:27:39;98681.28;;;22.32
12430;BMP280;6279;42.192;24.326;2022-08-01T00:30:05;98685.38;;;22.18
12430;BMP280;6279;42.192;24.326;2022-08-01T00:32:31;98692.63;;;22.06
12430;BMP280;6279;42.192;24.326;2022-08-01T00:34:57;98688.38;;;22.05
12430;BMP280;6279;42.192;24.326;2022-08-01T00:37:22;98695.03;;;22.08
12430;BMP280;6279;42.192;24.326;2022-08-01T00:39:47;98691.03;;;22.05
12430;BMP280;6279;42.192;24.326;2022-08-01T00:42:13;98692.09;;;22.04
12430;BMP280;6279;42.192;24.326;2022-08-01T00:44:39;98689.44;;;22.04
12430;BMP280;6279;42.192;24.326;2022-08-01T00:47:05;98689.75;;;22.08
12430;BMP280;6279;42.192;24.326;2022-08-01T00:49:30;98700.44;;;21.97
12430;BMP280;6279;42.192;24.326;2022-08-01T00:51:56;98696.50;;;21.99
12430;BMP280;6279;42.192;24.326;2022-08-01T00:54:24;98690.31;;;21.94
12430;BMP280;6279;42.192;24.326;2022-08-01T00:56:50;98694.44;;;21.85
12430;BMP280;6279;42.192;24.326;2022-08-01T00:59:17;98705.66;;;21.92
12430;BMP280;6279;42.192;24.326;2022-08-01T01:01:43;98702.75;;;21.93
12430;BMP280;6279;42.192;24.326;2022-08-01T01:04:09;98700.91;;;21.94
12430;BMP280;6279;42.192;24.326;2022-08-01T01:06:56;98700.69;;;21.95
12430;BMP280;6279;42.192;24.326;2022-08-01T01:09:56;98691.72;;;21.80
12430;BMP280;6279;42.192;24.326;2022-08-01T01:12:30;98687.41;;;21.74
12430;BMP280;6279;42.192;24.326;2022-08-01T01:17:33;98681.88;;;21.59
12430;BMP280;6279;42.192;24.326;2022-08-01T01:20:03;98693.47;;;21.53
12430;BMP280;6279;42.192;24.326;2022-08-01T01:22:57;98689.22;;;21.53
12430;BMP280;6279;42.192;24.326;2022-08-01T01:30:41;98683.72;;;21.59
12430;BMP280;6279;42.192;24.326;2022-08-01T01:33:10;98691.97;;;21.62
12430;BMP280;6279;42.192;24.326;2022-08-01T01:35:38;98694.25;;;21.54
12430;BMP280;6279;42.192;24.326;2022-08-01T01:38:21;98685.94;;;21.46
12430;BMP280;6279;42.192;24.326;2022-08-01T01:40:49;98696.53;;;21.46
12430;BMP280;6279;42.192;24.326;2022-08-01T01:43:16;98692.13;;;21.35
12430;BMP280;6279;42.192;24.326;2022-08-01T01:45:44;98692.59;;;21.32
12430;BMP280;6279;42.192;24.326;2022-08-01T01:48:13;98689.78;;;21.22
12430;BMP280;6279;42.192;24.326;2022-08-01T01:50:40;98693.53;;;21.10
12430;BMP280;6279;42.192;24.326;2022-08-01T01:53:07;98690.06;;;21.09
12430;BMP280;6279;42.192;24.326;2022-08-01T01:55:37;98692.56;;;21.16
12430;BMP280;6279;42.192;24.326;2022-08-01T01:58:04;98686.22;;;21.01
12430;BMP280;6279;42.192;24.326;2022-08-01T02:00:31;98689.69;;;21.01
12430;BMP280;6279;42.192;24.326;2022-08-01T02:02:58;98692.16;;;21.08
12430;BMP280;6279;42.192;24.326;2022-08-01T02:05:25;98689.50;;;21.08
12430;BMP280;6279;42.192;24.326;2022-08-01T02:07:52;98695.16;;;21.11
12430;BMP280;6279;42.192;24.326;2022-08-01T02:10:19;98688.72;;;21.07
12430;BMP280;6279;42.192;24.326;2022-08-01T02:12:45;98689.34;;;20.98
12430;BMP280;6279;42.192;24.326;2022-08-01T02:15:15;98698.50;;;21.07
12430;BMP280;6279;42.192;24.326;2022-08-01T02:17:45;98689.34;;;20.98
12430;BMP280;6279;42.192;24.326;2022-08-01T02:20:12;98700.56;;;21.05
12430;BMP280;6279;42.192;24.326;2022-08-01T02:22:51;98696.41;;;21.08
12430;BMP280;6279;42.192;24.326;2022-08-01T02:25:22;98702.41;;;21.04
12430;BMP280;6279;42.192;24.326;2022-08-01T02:27:58;98694.78;;;21.08
12430;BMP280;6279;42.192;24.326;2022-08-01T02:30:29;98692.16;;;21.08
12430;BMP280;6279;42.192;24.326;2022-08-01T02:33:05;98694.72;;;21.03
12430;BMP280;6279;42.192;24.326;2022-08-01T02:35:33;98695.28;;;21.05
12430;BMP280;6279;42.192;24.326;2022-08-01T02:38:01;98702.66;;;21.03
12430;BMP280;6279;42.192;24.326;2022-08-01T02:40:28;98700.50;;;21.00
12430;BMP280;6279;42.192;24.326;2022-08-01T02:42:55;98708.59;;;20.93
12430;BMP280;6279;42.192;24.326;2022-08-01T02:45:25;98713.63;;;20.95
12430;BMP280;6279;42.192;24.326;2022-08-01T02:47:52;98689.84;;;20.95
12430;BMP280;6279;42.192;24.326;2022-08-01T02:50:20;98691.69;;;20.94
12430;BMP280;6279;42.192;24.326;2022-08-01T02:52:48;98689.34;;;20.82
12430;BMP280;6279;42.192;24.326;2022-08-01T02:55:15;98693.19;;;20.74
12430;BMP280;6279;42.192;24.326;2022-08-01T02:57:42;98695.25;;;20.72
12430;BMP280;6279;42.192;24.326;2022-08-01T03:00:09;98690.19;;;20.71
12430;BMP280;6279;42.192;24.326;2022-08-01T03:02:35;98685.94;;;20.70
12430;BMP280;6279;42.192;24.326;2022-08-01T03:05:02;98688.84;;;20.68
12430;BMP280;6279;42.192;24.326;2022-08-01T03:07:28;98692.09;;;20.59
12430;BMP280;6279;42.192;24.326;2022-08-01T03:09:55;98684.50;;;20.63
12430;BMP280;6279;42.192;24.326;2022-08-01T03:12:26;98687.94;;;20.63
12430;BMP280;6279;42.192;24.326;2022-08-01T03:14:54;98687.16;;;20.63
12430;BMP280;6279;42.192;24.326;2022-08-01T03:17:23;98681.06;;;20.62
12430;BMP280;6279;42.192;24.326;2022-08-01T03:19:51;98685.53;;;20.62
12430;BMP280;6279;42.192;24.326;2022-08-01T03:22:18;98685.06;;;20.65
12430;BMP280;6279;42.192;24.326;2022-08-01T03:24:52;98682.69;;;20.52
12430;BMP280;6279;42.192;24.326;2022-08-01T03:27:23;98696.06;;;20.45
12430;BMP280;6279;42.192;24.326;2022-08-01T03:29:50;98695.84;;;20.36
12430;BMP280;6279;42.192;24.326;2022-08-01T03:32:18;98693.91;;;20.31
12430;BMP280;6279;42.192;24.326;2022-08-01T03:34:45;98695.75;;;20.31
12430;BMP280;6279;42.192;24.326;2022-08-01T03:39:50;98695.16;;;20.40
12430;BMP280;6279;42.192;24.326;2022-08-01T03:42:19;98691.09;;;20.38
12430;BMP280;6279;42.192;24.326;2022-08-01T03:44:58;98686.97;;;20.42
12430;BMP280;6279;42.192;24.326;2022-08-01T03:47:31;98686.88;;;20.48
12430;BMP280;6279;42.192;24.326;2022-08-01T03:49:58;98683.81;;;20.56
12430;BMP280;6279;42.192;24.326;2022-08-01T03:52:27;98690.88;;;20.50
12430;BMP280;6279;42.192;24.326;2022-08-01T03:54:55;98693.16;;;20.58
12430;BMP280;6279;42.192;24.326;2022-08-01T03:57:23;98698.47;;;20.74
12430;BMP280;6279;42.192;24.326;2022-08-01T03:59:49;98692.53;;;20.84
12430;BMP280;6279;42.192;24.326;2022-08-01T04:02:15;98686.66;;;20.93
12430;BMP280;6279;42.192;24.326;2022-08-01T04:04:41;98688.38;;;21.04
12430;BMP280;6279;42.192;24.326;2022-08-01T04:07:25;98682.47;;;21.13
12430;BMP280;6279;42.192;24.326;2022-08-01T04:09:51;98691.88;;;21.20
12430;BMP280;6279;42.192;24.326;2022-08-01T04:12:17;98688.13;;;21.32
12430;BMP280;6279;42.192;24.326;2022-08-01T04:14:42;98690.66;;;21.44
12430;BMP280;6279;42.192;24.326;2022-08-01T04:17:08;98691.31;;;21.51
12430;BMP280;6279;42.192;24.326;2022-08-01T04:19:33;98681.19;;;21.64
12430;BMP280;6279;42.192;24.326;2022-08-01T04:21:59;98686.19;;;21.81
12430;BMP280;6279;42.192;24.326;2022-08-01T04:24:26;98677.56;;;21.91
12430;BMP280;6279;42.192;24.326;2022-08-01T04:26:56;98685.91;;;21.99
12430;BMP280;6279;42.192;24.326;2022-08-01T04:29:23;98689.19;;;22.06
12430;BMP280;6279;42.192;24.326;2022-08-01T04:31:50;98689.53;;;22.14
12430;BMP280;6279;42.192;24.326;2022-08-01T04:34:21;98700.81;;;22.26
12430;BMP280;6279;42.192;24.326;2022-08-01T04:36:48;98693.47;;;22.33
12430;BMP280;6279;42.192;24.326;2022-08-01T04:39:16;98694.41;;;22.43
12430;BMP280;6279;42.192;24.326;2022-08-01T04:41:44;98692.00;;;22.42
12430;BMP280;6279;42.192;24.326;2022-08-01T04:44:13;98678.63;;;22.53
12430;BMP280;6279;42.192;24.326;2022-08-01T04:46:39;98677.63;;;22.59
12430;BMP280;6279;42.192;24.326;2022-08-01T04:49:08;98691.66;;;22.80
12430;BMP280;6279;42.192;24.326;2022-08-01T04:51:34;98688.38;;;22.99
12430;BMP280;6279;42.192;24.326;2022-08-01T04:54:00;98682.16;;;23.15
12430;BMP280;6279;42.192;24.326;2022-08-01T04:56:26;98693.16;;;23.33
12430;BMP280;6279;42.192;24.326;2022-08-01T04:58:52;98691.59;;;23.68
12430;BMP280;6279;42.192;24.326;2022-08-01T05:01:37;98689.25;;;24.31
12430;BMP280;6279;42.192;24.326;2022-08-01T05:04:03;98683.56;;;24.73
12430;BMP280;6279;42.192;24.326;2022-08-01T05:06:28;98675.63;;;25.17
12430;BMP280;6279;42.192;24.326;2022-08-01T05:08:54;98687.03;;;25.76
12430;BMP280;6279;42.192;24.326;2022-08-01T05:11:19;98686.47;;;25.99
12430;BMP280;6279;42.192;24.326;2022-08-01T05:13:47;98704.06;;;26.00
12430;BMP280;6279;42.192;24.326;2022-08-01T05:16:12;98703.78;;;25.87
12430;BMP280;6279;42.192;24.326;2022-08-01T05:18:38;98697.44;;;25.53
12430;BMP280;6279;42.192;24.326;2022-08-01T05:21:03;98699.84;;;25.06
12430;BMP280;6279;42.192;24.326;2022-08-01T05:23:29;98709.66;;;24.96
12430;BMP280;6279;42.192;24.326;2022-08-01T05:25:54;98707.06;;;25.35
12430;BMP280;6279;42.192;24.326;2022-08-01T05:28:19;98698.25;;;25.64
12430;BMP280;6279;42.192;24.326;2022-08-01T05:30:45;98700.41;;;26.43
12430;BMP280;6279;42.192;24.326;2022-08-01T05:33:10;98688.81;;;27.10
12430;BMP280;6279;42.192;24.326;2022-08-01T05:35:36;98689.19;;;27.36
12430;BMP280;6279;42.192;24.326;2022-08-01T05:38:01;98696.94;;;27.61
12430;BMP280;6279;42.192;24.326;2022-08-01T05:40:27;98692.28;;;28.22
12430;BMP280;6279;42.192;24.326;2022-08-01T05:42:52;98688.13;;;28.75
12430;BMP280;6279;42.192;24.326;2022-08-01T05:45:18;98694.22;;;29.17
12430;BMP280;6279;42.192;24.326;2022-08-01T05:47:43;98701.66;;;29.20
12430;BMP280;6279;42.192;24.326;2022-08-01T05:50:08;98708.03;;;28.87
12430;BMP280;6279;42.192;24.326;2022-08-01T05:52:34;98691.88;;;29.28
12430;BMP280;6279;42.192;24.326;2022-08-01T05:54:59;98696.31;;;28.65
12430;BMP280;6279;42.192;24.326;2022-08-01T05:57:25;98694.16;;;29.04
12430;BMP280;6279;42.192;24.326;2022-08-01T05:59:50;98687.59;;;28.55
12430;BMP280;6279;42.192;24.326;2022-08-01T06:02:15;98683.25;;;28.41
12430;BMP280;6279;42.192;24.326;2022-08-01T06:04:41;98674.16;;;28.78
12430;BMP280;6279;42.192;24.326;2022-08-01T06:07:06;98681.69;;;29.12
12430;BMP280;6279;42.192;24.326;2022-08-01T06:09:32;98677.06;;;29.49
12430;BMP280;6279;42.192;24.326;2022-08-01T06:11:57;98675.03;;;29.73
12430;BMP280;6279;42.192;24.326;2022-08-01T06:14:23;98669.00;;;30.33
12430;BMP280;6279;42.192;24.326;2022-08-01T06:16:48;98664.00;;;30.80
12430;BMP280;6279;42.192;24.326;2022-08-01T06:19:14;98665.41;;;30.99
12430;BMP280;6279;42.192;24.326;2022-08-01T06:21:39;98664.59;;;31.33
12430;BMP280;6279;42.192;24.326;2022-08-01T06:24:05;98668.78;;;31.47
12430;BMP280;6279;42.192;24.326;2022-08-01T06:26:30;98661.38;;;31.82
12430;BMP280;6279;42.192;24.326;2022-08-01T06:28:56;98665.81;;;31.78
12430;BMP280;6279;42.192;24.326;2022-08-01T06:31:21;98663.03;;;32.21
12430;BMP280;6279;42.192;24.326;2022-08-01T06:33:47;98661.16;;;32.39
12430;BMP280;6279;42.192;24.326;2022-08-01T06:36:12;98655.78;;;32.39
12430;BMP280;6279;42.192;24.326;2022-08-01T06:38:38;98657.91;;;32.83
12430;BMP280;6279;42.192;24.326;2022-08-01T06:41:03;98646.84;;;33.09
12430;BMP280;6279;42.192;24.326;2022-08-01T06:43:29;98653.31;;;32.84
12430;BMP280;6279;42.192;24.326;2022-08-01T06:45:54;98655.69;;;32.68
12430;BMP280;6279;42.192;24.326;2022-08-01T06:48:20;98652.28;;;32.46
12430;BMP280;6279;42.192;24.326;2022-08-01T06:50:45;98651.56;;;32.71
12430;BMP280;6279;42.192;24.326;2022-08-01T06:53:10;98653.34;;;32.92
12430;BMP280;6279;42.192;24.326;2022-08-01T06:55:36;98648.84;;;32.71
12430;BMP280;6279;42.192;24.326;2022-08-01T06:58:01;98647.91;;;33.00
12430;BMP280;6279;42.192;24.326;2022-08-01T07:00:27;98642.41;;;33.13
12430;BMP280;6279;42.192;24.326;2022-08-01T07:02:54;98640.81;;;33.12
12430;BMP280;6279;42.192;24.326;2022-08-01T07:05:21;98641.13;;;33.28
12430;BMP280;6279;42.192;24.326;2022-08-01T07:07:46;98634.72;;;33.49
12430;BMP280;6279;42.192;24.326;2022-08-01T07:10:12;98631.63;;;33.75
12430;BMP280;6279;42.192;24.326;2022-08-01T07:12:38;98642.38;;;33.92
12430;BMP280;6279;42.192;24.326;2022-08-01T07:15:05;98639.88;;;34.15
12430;BMP280;6279;42.192;24.326;2022-08-01T07:17:30;98638.38;;;33.97
12430;BMP280;6279;42.192;24.326;2022-08-01T07:19:56;98642.28;;;34.17
12430;BMP280;6279;42.192;24.326;2022-08-01T07:22:21;98631.00;;;34.15
12430;BMP280;6279;42.192;24.326;2022-08-01T07:24:47;98634.03;;;34.41
12430;BMP280;6279;42.192;24.326;2022-08-01T07:27:12;98620.44;;;34.78
12430;BMP280;6279;42.192;24.326;2022-08-01T07:29:38;98612.78;;;35.00
12430;BMP280;6279;42.192;24.326;2022-08-01T07:32:03;98614.22;;;34.78
12430;BMP280;6279;42.192;24.326;2022-08-01T07:34:29;98616.94;;;34.78
12430;BMP280;6279;42.192;24.326;2022-08-01T07:36:55;98611.16;;;34.87
12430;BMP280;6279;42.192;24.326;2022-08-01T07:39:21;98614.75;;;34.91
12430;BMP280;6279;42.192;24.326;2022-08-01T07:41:46;98614.69;;;35.00
12430;BMP280;6279;42.192;24.326;2022-08-01T07:44:11;98605.69;;;35.28
12430;BMP280;6279;42.192;24.326;2022-08-01T07:46:37;98607.22;;;35.17
12430;BMP280;6279;42.192;24.326;2022-08-01T07:49:02;98604.78;;;35.24
12430;BMP280;6279;42.192;24.326;2022-08-01T07:51:28;98602.88;;;35.36
12430;BMP280;6279;42.192;24.326;2022-08-01T07:53:53;98601.81;;;35.49
12430;BMP280;6279;42.192;24.326;2022-08-01T07:56:19;98594.03;;;35.47
12430;BMP280;6279;42.192;24.326;2022-08-01T07:58:45;98596.44;;;35.60
12430;BMP280;6279;42.192;24.326;2022-08-01T08:01:12;98602.00;;;35.99
12430;BMP280;6279;42.192;24.326;2022-08-01T08:03:37;98595.72;;;36.69
12430;BMP280;6279;42.192;24.326;2022-08-01T08:06:03;98600.22;;;37.15
12430;BMP280;6279;42.192;24.326;2022-08-01T08:08:28;98592.97;;;37.34
12430;BMP280;6279;42.192;24.326;2022-08-01T08:10:54;98594.09;;;36.91
12430;BMP280;6279;42.192;24.326;2022-08-01T08:13:19;98591.59;;;37.25
12430;BMP280;6279;42.192;24.326;2022-08-01T08:15:45;98585.25;;;37.94
12430;BMP280;6279;42.192;24.326;2022-08-01T08:18:10;98590.72;;;38.42
12430;BMP280;6279;42.192;24.326;2022-08-01T08:20:36;98585.78;;;39.19
12430;BMP280;6279;42.192;24.326;2022-08-01T08:23:01;98578.88;;;39.65
12430;BMP280;6279;42.192;24.326;2022-08-01T08:25:46;98576.50;;;39.64
12430;BMP280;6279;42.192;24.326;2022-08-01T08:28:12;98570.00;;;39.28
12430;BMP280;6279;42.192;24.326;2022-08-01T08:30:37;98576.19;;;39.25
12430;BMP280;6279;42.192;24.326;2022-08-01T08:33:03;98586.53;;;40.51
12430;BMP280;6279;42.192;24.326;2022-08-01T08:35:28;98582.41;;;40.93
12430;BMP280;6279;42.192;24.326;2022-08-01T08:37:54;98564.75;;;41.94
12430;BMP280;6279;42.192;24.326;2022-08-01T08:40:21;98574.41;;;42.31
12430;BMP280;6279;42.192;24.326;2022-08-01T08:42:48;98574.25;;;42.66
12430;BMP280;6279;42.192;24.326;2022-08-01T08:45:13;98565.03;;;43.05
12430;BMP280;6279;42.192;24.326;2022-08-01T08:47:41;98566.16;;;42.84
12430;BMP280;6279;42.192;24.326;2022-08-01T08:50:07;98560.13;;;44.06
12430;BMP280;6279;42.192;24.326;2022-08-01T08:52:35;98573.84;;;44.03
12430;BMP280;6279;42.192;24.326;2022-08-01T08:55:01;98562.47;;;44.35
12430;BMP280;6279;42.192;24.326;2022-08-01T08:57:26;98551.44;;;44.56
12430;BMP280;6279;42.192;24.326;2022-08-01T08:59:52;98546.03;;;43.87
12430;BMP280;6279;42.192;24.326;2022-08-01T09:02:20;98544.47;;;43.83
12430;BMP280;6279;42.192;24.326;2022-08-01T09:04:47;98556.97;;;43.80
12430;BMP280;6279;42.192;24.326;2022-08-01T09:07:13;98550.63;;;43.22
12430;BMP280;6279;42.192;24.326;2022-08-01T09:09:39;98547.97;;;44.24
12430;BMP280;6279;42.192;24.326;2022-08-01T09:12:05;98538.41;;;44.80
12430;BMP280;6279;42.192;24.326;2022-08-01T09:14:30;98534.03;;;44.96
12430;BMP280;6279;42.192;24.326;2022-08-01T09:17:07;98538.06;;;45.42
12430;BMP280;6279;42.192;24.326;2022-08-01T09:19:44;98536.78;;;45.57
12430;BMP280;6279;42.192;24.326;2022-08-01T09:22:15;98536.84;;;46.00
12430;BMP280;6279;42.192;24.326;2022-08-01T09:25:07;98541.22;;;44.56
12430;BMP280;6279;42.192;24.326;2022-08-01T09:27:34;98536.53;;;42.33
12430;BMP280;6279;42.192;24.326;2022-08-01T09:35:31;98532.28;;;43.39
12430;BMP280;6279;42.192;24.326;2022-08-01T09:38:13;98515.31;;;42.79
12430;BMP280;6279;42.192;24.326;2022-08-01T09:43:11;98512.97;;;42.91
12430;BMP280;6279;42.192;24.326;2022-08-01T09:45:37;98500.78;;;42.72
12430;BMP280;6279;42.192;24.326;2022-08-01T09:48:07;98505.31;;;43.48
12430;BMP280;6279;42.192;24.326;2022-08-01T09:50:41;98516.66;;;43.74
12430;BMP280;6279;42.192;24.326;2022-08-01T09:53:07;98509.56;;;44.21
12430;BMP280;6279;42.192;24.326;2022-08-01T09:55:33;98499.81;;;43.76
12430;BMP280;6279;42.192;24.326;2022-08-01T09:57:58;98497.38;;;43.06
12430;BMP280;6279;42.192;24.326;2022-08-01T10:00:26;98498.19;;;43.13
12430;BMP280;6279;42.192;24.326;2022-08-01T10:02:52;98497.84;;;43.35
12430;BMP280;6279;42.192;24.326;2022-08-01T10:05:17;98493.91;;;43.22
12430;BMP280;6279;42.192;24.326;2022-08-01T10:08:02;98509.38;;;42.64
12430;BMP280;6279;42.192;24.326;2022-08-01T10:10:29;98499.94;;;42.54
12430;BMP280;6279;42.192;24.326;2022-08-01T10:12:56;98497.44;;;43.23
12430;BMP280;6279;42.192;24.326;2022-08-01T10:15:23;98489.22;;;44.12
12430;BMP280;6279;42.192;24.326;2022-08-01T10:17:57;98489.97;;;43.10
12430;BMP280;6279;42.192;24.326;2022-08-01T10:20:28;98482.75;;;42.54
12430;BMP280;6279;42.192;24.326;2022-08-01T10:22:55;98495.66;;;42.57
12430;BMP280;6279;42.192;24.326;2022-08-01T10:25:21;98486.09;;;43.17
12430;BMP280;6279;42.192;24.326;2022-08-01T10:27:52;98477.47;;;43.12
12430;BMP280;6279;42.192;24.326;2022-08-01T10:30:20;98488.81;;;43.14
12430;BMP280;6279;42.192;24.326;2022-08-01T10:32:46;98501.94;;;42.64
12430;BMP280;6279;42.192;24.326;2022-08-01T10:35:13;98496.31;;;42.37
12430;BMP280;6279;42.192;24.326;2022-08-01T10:37:45;98490.34;;;43.08
12430;BMP280;6279;42.192;24.326;2022-08-01T10:40:14;98477.06;;;43.00
12430;BMP280;6279;42.192;24.326;2022-08-01T10:42:42;98481.00;;;43.23
12430;BMP280;6279;42.192;24.326;2022-08-01T10:45:09;98488.63;;;42.56
12430;BMP280;6279;42.192;24.326;2022-08-01T10:48:04;98490.03;;;42.26
12430;BMP280;6279;42.192;24.326;2022-08-01T10:50:34;98489.56;;;42.17
12430;BMP280;6279;42.192;24.326;2022-08-01T10:53:11;98468.44;;;42.94
12430;BMP280;6279;42.192;24.326;2022-08-01T11:06:25;98471.94;;;42.85
12430;BMP280;6279;42.192;24.326;2022-08-01T11:08:52;98472.78;;;42.15
12430;BMP280;6279;42.192;24.326;2022-08-01T11:11:20;98460.44;;;42.42
12430;BMP280;6279;42.192;24.326;2022-08-01T11:16:31;98459.88;;;41.59
12430;BMP280;6279;42.192;24.326;2022-08-01T11:18:56;98464.09;;;40.75
12430;BMP280;6279;42.192;24.326;2022-08-01T11:21:22;98468.63;;;39.56
12430;BMP280;6279;42.192;24.326;2022-08-01T11:23:51;98447.03;;;38.60
12430;BMP280;6279;42.192;24.326;2022-08-01T11:26:19;98465.53;;;37.53
12430;BMP280;6279;42.192;24.326;2022-08-01T11:28:46;98451.47;;;37.17
12430;BMP280;6279;42.192;24.326;2022-08-01T11:38:43;98448.81;;;36.63
12430;BMP280;6279;42.192;24.326;2022-08-01T11:47:24;98447.50;;;37.00
12430;BMP280;6279;42.192;24.326;2022-08-01T11:49:47;98463.59;;;36.93
12430;BMP280;6279;42.192;24.326;2022-08-01T11:54:54;98447.38;;;37.38
12430;BMP280;6279;42.192;24.326;2022-08-01T11:57:27;98446.94;;;37.21
12430;BMP280;6279;42.192;24.326;2022-08-01T11:59:57;98442.53;;;37.02
12430;BMP280;6279;42.192;24.326;2022-08-01T12:02:27;98445.94;;;36.84
12430;BMP280;6279;42.192;24.326;2022-08-01T12:04:59;98443.81;;;36.65
12430;BMP280;6279;42.192;24.326;2022-08-01T12:07:26;98445.09;;;36.41
12430;BMP280;6279;42.192;24.326;2022-08-01T12:12:24;98437.09;;;35.94
12430;BMP280;6279;42.192;24.326;2022-08-01T12:15:14;98449.50;;;35.95
12430;BMP280;6279;42.192;24.326;2022-08-01T12:17:43;98440.94;;;35.70
12430;BMP280;6279;42.192;24.326;2022-08-01T12:20:20;98436.84;;;35.75
12430;BMP280;6279;42.192;24.326;2022-08-01T12:22:46;98441.53;;;35.52
12430;BMP280;6279;42.192;24.326;2022-08-01T12:25:16;98440.25;;;35.96
12430;BMP280;6279;42.192;24.326;2022-08-01T12:27:44;98434.50;;;36.36
12430;BMP280;6279;42.192;24.326;2022-08-01T12:30:20;98435.34;;;36.52
12430;BMP280;6279;42.192;24.326;2022-08-01T12:32:49;98426.50;;;36.55
12430;BMP280;6279;42.192;24.326;2022-08-01T12:35:20;98431.44;;;36.26
12430;BMP280;6279;42.192;24.326;2022-08-01T12:37:50;98421.91;;;36.17
12430;BMP280;6279;42.192;24.326;2022-08-01T12:40:19;98426.38;;;36.24
12430;BMP280;6279;42.192;24.326;2022-08-01T12:42:47;98423.66;;;36.36
12430;BMP280;6279;42.192;24.326;2022-08-01T12:45:14;98412.31;;;35.69
12430;BMP280;6279;42.192;24.326;2022-08-01T12:47:41;98425.16;;;35.95
12430;BMP280;6279;42.192;24.326;2022-08-01T12:50:14;98424.69;;;35.93
12430;BMP280;6279;42.192;24.326;2022-08-01T12:52:40;98426.13;;;36.02
12430;BMP280;6279;42.192;24.326;2022-08-01T12:57:34;98413.53;;;36.21
12430;BMP280;6279;42.192;24.326;2022-08-01T13:00:25;98407.50;;;36.13
12430;BMP280;6279;42.192;24.326;2022-08-01T13:03:08;98413.84;;;35.93
12430;BMP280;6279;42.192;24.326;2022-08-01T13:05:48;98421.81;;;35.51
12430;BMP280;6279;42.192;24.326;2022-08-01T13:08:23;98413.91;;;35.46
12430;BMP280;6279;42.192;24.326;2022-08-01T13:10:50;98412.09;;;35.38
12430;BMP280;6279;42.192;24.326;2022-08-01T13:13:17;98408.03;;;35.56
12430;BMP280;6279;42.192;24.326;2022-08-01T13:15:43;98409.84;;;35.64
12430;BMP280;6279;42.192;24.326;2022-08-01T13:20:48;98413.63;;;35.74
12430;BMP280;6279;42.192;24.326;2022-08-01T13:23:16;98409.06;;;35.52
12430;BMP280;6279;42.192;24.326;2022-08-01T13:25:50;98410.97;;;35.51
12430;BMP280;6279;42.192;24.326;2022-08-01T13:28:21;98411.41;;;35.53
12430;BMP280;6279;42.192;24.326;2022-08-01T13:30:59;98406.34;;;35.28
12430;BMP280;6279;42.192;24.326;2022-08-01T13:33:27;98395.75;;;35.35
12430;BMP280;6279;42.192;24.326;2022-08-01T13:35:56;98409.06;;;35.40
12430;BMP280;6279;42.192;24.326;2022-08-01T13:38:22;98405.31;;;35.21
12430;BMP280;6279;42.192;24.326;2022-08-01T13:41:07;98400.59;;;34.94
12430;BMP280;6279;42.192;24.326;2022-08-01T13:43:32;98399.34;;;35.04
12430;BMP280;6279;42.192;24.326;2022-08-01T13:45:59;98395.03;;;34.91
12430;BMP280;6279;42.192;24.326;2022-08-01T13:48:27;98396.94;;;34.79
12430;BMP280;6279;42.192;24.326;2022-08-01T13:50:53;98394.16;;;34.87
12430;BMP280;6279;42.192;24.326;2022-08-01T13:53:18;98394.41;;;34.94
12430;BMP280;6279;42.192;24.326;2022-08-01T13:55:44;98397.22;;;34.97
12430;BMP280;6279;42.192;24.326;2022-08-01T13:58:10;98398.09;;;35.01
12430;BMP280;6279;42.192;24.326;2022-08-01T14:00:35;98389.66;;;35.14
12430;BMP280;6279;42.192;24.326;2022-08-01T14:03:00;98398.78;;;34.98
12430;BMP280;6279;42.192;24.326;2022-08-01T14:05:26;98398.28;;;34.73
12430;BMP280;6279;42.192;24.326;2022-08-01T14:07:51;98394.63;;;34.57
12430;BMP280;6279;42.192;24.326;2022-08-01T14:10:17;98393.75;;;34.53
12430;BMP280;6279;42.192;24.326;2022-08-01T14:12:42;98388.06;;;34.46
12430;BMP280;6279;42.192;24.326;2022-08-01T14:15:08;98393.31;;;34.43
12430;BMP280;6279;42.192;24.326;2022-08-01T14:17:34;98393.38;;;34.23
12430;BMP280;6279;42.192;24.326;2022-08-01T14:19:59;98394.72;;;34.17
12430;BMP280;6279;42.192;24.326;2022-08-01T14:22:25;98389.03;;;34.10
12430;BMP280;6279;42.192;24.326;2022-08-01T14:24:51;98395.16;;;34.19
12430;BMP280;6279;42.192;24.326;2022-08-01T14:27:16;98398.31;;;34.21
12430;BMP280;6279;42.192;24.326;2022-08-01T14:29:42;98383.94;;;34.29
12430;BMP280;6279;42.192;24.326;2022-08-01T14:32:07;98384.53;;;34.34
12430;BMP280;6279;42.192;24.326;2022-08-01T14:34:32;98396.25;;;34.38
12430;BMP280;6279;42.192;24.326;2022-08-01T14:36:58;98402.22;;;34.43
12430;BMP280;6279;42.192;24.326;2022-08-01T14:39:23;98401.09;;;34.44
12430;BMP280;6279;42.192;24.326;2022-08-01T14:41:49;98401.56;;;34.46
12430;BMP280;6279;42.192;24.326;2022-08-01T14:44:14;98405.75;;;34.24
12430;BMP280;6279;42.192;24.326;2022-08-01T14:46:39;98406.44;;;34.01
12430;BMP280;6279;42.192;24.326;2022-08-01T14:49:06;98403.75;;;34.01
12430;BMP280;6279;42.192;24.326;2022-08-01T14:51:31;98401.19;;;33.96
12430;BMP280;6279;42.192;24.326;2022-08-01T14:53:59;98400.81;;;33.86
12430;BMP280;6279;42.192;24.326;2022-08-01T14:56:24;98404.56;;;33.73
12430;BMP280;6279;42.192;24.326;2022-08-01T14:58:50;98405.22;;;33.70
12430;BMP280;6279;42.192;24.326;2022-08-01T15:01:16;98396.91;;;33.75
12430;BMP280;6279;42.192;24.326;2022-08-01T15:03:42;98412.25;;;33.34
12430;BMP280;6279;42.192;24.326;2022-08-01T15:06:08;98412.19;;;33.14
12430;BMP280;6279;42.192;24.326;2022-08-01T15:08:36;98414.88;;;33.14